createdAt,value
2022-07-29T00:00:58.647Z,45.91
2022-07-29T00:03:25.216Z,46.04
2022-07-29T00:05:53.940Z,45.84
2022-07-29T00:08:20.921Z,46.06
2022-07-29T00:10:47.572Z,46.15
2022-07-29T00:13:14.179Z,45.95
2022-07-29T00:15:40.723Z,45.92
2022-07-29T00:18:07.266Z,46.04
2022-07-29T00:20:33.783Z,46.23
2022-07-29T00:23:00.326Z,46.47
2022-07-29T00:25:27.008Z,46.26
2022-07-29T00:27:53.492Z,46.36
2022-07-29T00:30:20.514Z,46.33
2022-07-29T00:32:47.048Z,46.38
2022-07-29T00:35:32.530Z,46.30
2022-07-29T00:38:00.117Z,46.70
2022-07-29T00:40:28.610Z,46.53
2022-07-29T00:42:55.516Z,46.57
2022-07-29T00:45:23.105Z,46.60
2022-07-29T00:47:49.866Z,46.64
2022-07-29T00:50:16.562Z,46.98
2022-07-29T00:52:43.363Z,46.93
2022-07-29T00:55:15.580Z,46.90
2022-07-29T00:57:43.539Z,47.02
2022-07-29T01:00:13.912Z,47.03
2022-07-29T01:02:40.452Z,47.04
2022-07-29T01:05:07.436Z,47.11
2022-07-29T01:07:37.784Z,46.92
2022-07-29T01:10:07.255Z,46.93
2022-07-29T01:12:35.454Z,47.02
2022-07-29T01:15:05.197Z,47.15
2022-07-29T01:17:53.236Z,47.10
2022-07-29T01:20:31.937Z,47.13
2022-07-29T01:23:08.028Z,47.38
2022-07-29T01:25:59.250Z,47.23
2022-07-29T01:29:13.635Z,47.27
2022-07-29T01:31:59.026Z,47.48
2022-07-29T01:34:32.410Z,47.23
2022-07-29T01:37:07.743Z,47.37
2022-07-29T01:39:37.617Z,47.41
2022-07-29T01:42:11.070Z,47.48
2022-07-29T01:45:10.580Z,47.58
2022-07-29T01:47:57.384Z,47.55
2022-07-29T01:50:32.579Z,47.61
2022-07-29T01:53:05.538Z,47.64
2022-07-29T01:55:39.617Z,47.73
2022-07-29T01:58:07.944Z,47.31
2022-07-29T02:00:35.612Z,47.44
2022-07-29T02:03:07.269Z,47.76
2022-07-29T02:05:36.348Z,47.69
2022-07-29T02:08:05.237Z,47.67
2022-07-29T02:10:34.541Z,47.73
2022-07-29T02:13:03.214Z,47.92
2022-07-29T02:15:32.918Z,47.60
2022-07-29T02:18:06.182Z,48.14
2022-07-29T02:20:33.761Z,48.19
2022-07-29T02:23:01.831Z,48.05
2022-07-29T02:25:37.669Z,48.19
2022-07-29T02:28:07.124Z,48.38
2022-07-29T02:30:34.845Z,48.65
2022-07-29T02:33:02.787Z,48.71
2022-07-29T02:35:34.897Z,48.86
2022-07-29T02:38:22.806Z,48.77
2022-07-29T02:40:52.038Z,49.05
2022-07-29T02:43:20.130Z,48.57
2022-07-29T02:45:51.992Z,48.25
2022-07-29T02:48:21.167Z,48.86
2022-07-29T02:50:55.659Z,48.84
2022-07-29T02:53:26.044Z,49.46
2022-07-29T02:56:00.193Z,49.71
2022-07-29T02:58:38.975Z,49.83
2022-07-29T03:01:21.675Z,50.27
2022-07-29T03:03:50.407Z,50.31
2022-07-29T03:06:30.911Z,50.76
2022-07-29T03:09:10.444Z,51.23
2022-07-29T03:11:46.120Z,51.91
2022-07-29T03:14:18.698Z,52.06
2022-07-29T03:16:46.424Z,52.49
2022-07-29T03:19:13.323Z,52.69
2022-07-29T03:21:40.086Z,52.65
2022-07-29T03:24:10.550Z,52.75
2022-07-29T03:26:37.875Z,53.07
2022-07-29T03:29:05.134Z,53.42
2022-07-29T03:31:32.342Z,53.55
2022-07-29T03:34:00.234Z,53.80
2022-07-29T03:36:27.064Z,53.96
2022-07-29T03:38:54.552Z,54.05
2022-07-29T03:41:23.744Z,54.37
2022-07-29T03:43:52.752Z,54.89
2022-07-29T03:46:23.579Z,55.16
2022-07-29T03:48:54.114Z,55.17
2022-07-29T03:51:33.336Z,55.69
2022-07-29T03:54:07.675Z,55.41
2022-07-29T03:56:39.686Z,55.20
2022-07-29T03:59:07.711Z,55.03
2022-07-29T04:01:35.439Z,54.99
2022-07-29T04:04:04.166Z,55.50
2022-07-29T04:06:38.666Z,55.59
2022-07-29T04:09:05.151Z,57.13
2022-07-29T04:11:56.974Z,58.72
2022-07-29T04:14:25.122Z,60.90
2022-07-29T04:16:51.613Z,62.08
2022-07-29T04:19:18.422Z,62.73
2022-07-29T04:21:46.097Z,63.63
2022-07-29T04:24:12.899Z,63.96
2022-07-29T04:26:39.756Z,64.72
2022-07-29T04:29:06.196Z,65.39
2022-07-29T04:31:32.852Z,65.58
2022-07-29T04:33:59.388Z,64.66
2022-07-29T04:36:29.092Z,65.52
2022-07-29T04:38:56.515Z,66.11
2022-07-29T04:41:23.492Z,65.25
2022-07-29T04:44:01.769Z,65.41
2022-07-29T04:46:28.867Z,65.82
2022-07-29T04:48:55.507Z,65.67
2022-07-29T04:51:22.070Z,64.59
2022-07-29T04:53:48.809Z,65.89
2022-07-29T04:56:15.338Z,65.54
2022-07-29T04:58:41.963Z,65.40
2022-07-29T05:01:08.457Z,65.22
2022-07-29T05:03:34.931Z,64.84
2022-07-29T05:06:01.357Z,65.67
2022-07-29T05:08:27.812Z,66.23
2022-07-29T05:10:54.464Z,65.84
2022-07-29T05:13:20.993Z,66.55
2022-07-29T05:15:47.478Z,66.44
2022-07-29T05:18:14.360Z,65.98
2022-07-29T05:20:40.988Z,66.27
2022-07-29T05:23:07.677Z,65.76
2022-07-29T05:25:44.436Z,66.18
2022-07-29T05:28:12.363Z,66.69
2022-07-29T05:30:39.089Z,67.18
2022-07-29T05:33:05.869Z,67.47
2022-07-29T05:35:32.363Z,66.87
2022-07-29T05:37:58.835Z,67.69
2022-07-29T05:40:25.254Z,66.76
2022-07-29T05:42:51.718Z,66.78
2022-07-29T05:45:18.230Z,67.45
2022-07-29T05:47:44.729Z,66.02
2022-07-29T05:50:11.481Z,66.82
2022-07-29T05:52:38.027Z,65.77
2022-07-29T05:55:06.444Z,66.47
2022-07-29T05:57:33.201Z,66.19
2022-07-29T06:00:00.296Z,66.29
2022-07-29T06:02:26.857Z,65.33
2022-07-29T06:04:53.536Z,64.90
2022-07-29T06:07:20.338Z,65.51
2022-07-29T06:09:46.783Z,65.46
2022-07-29T06:12:13.494Z,64.12
2022-07-29T06:14:39.977Z,64.55
2022-07-29T06:17:06.799Z,64.61
2022-07-29T06:19:35.832Z,64.20
2022-07-29T06:22:02.414Z,64.60
2022-07-29T06:24:29.112Z,63.55
2022-07-29T06:26:55.903Z,63.75
2022-07-29T06:29:22.488Z,63.29
2022-07-29T06:31:48.988Z,63.70
2022-07-29T06:34:16.932Z,63.67
2022-07-29T06:36:44.366Z,63.82
2022-07-29T06:39:12.524Z,63.22
2022-07-29T06:41:38.987Z,63.35
2022-07-29T06:44:05.891Z,63.59
2022-07-29T06:46:33.143Z,63.56
2022-07-29T06:49:02.103Z,63.68
2022-07-29T06:51:28.626Z,64.31
2022-07-29T06:54:00.422Z,64.08
2022-07-29T06:56:38.182Z,64.41
2022-07-29T06:59:07.707Z,64.74
2022-07-29T07:01:34.237Z,64.81
2022-07-29T07:04:00.813Z,64.70
2022-07-29T07:06:27.572Z,64.87
2022-07-29T07:08:54.040Z,64.75
2022-07-29T07:11:20.574Z,64.67
2022-07-29T07:13:47.064Z,64.38
2022-07-29T07:16:13.670Z,64.69
2022-07-29T07:18:40.149Z,64.95
2022-07-29T07:21:06.719Z,64.56
2022-07-29T07:23:33.264Z,64.54
2022-07-29T07:25:59.738Z,64.45
2022-07-29T07:28:26.161Z,64.06
2022-07-29T07:30:53.109Z,64.53
2022-07-29T07:33:20.235Z,64.39
2022-07-29T07:35:47.105Z,64.14
2022-07-29T07:38:13.641Z,63.30
2022-07-29T07:40:40.779Z,63.47
2022-07-29T07:43:07.246Z,62.77
2022-07-29T07:45:34.129Z,62.93
2022-07-29T07:48:00.947Z,63.03
2022-07-29T07:50:27.571Z,63.25
2022-07-29T07:52:59.082Z,63.55
2022-07-29T07:55:27.082Z,63.12
2022-07-29T07:57:54.817Z,63.43
2022-07-29T08:00:23.710Z,64.08
2022-07-29T08:02:51.426Z,64.68
2022-07-29T08:05:18.898Z,65.43
2022-07-29T08:07:47.290Z,65.41
2022-07-29T08:10:15.403Z,65.30
2022-07-29T08:12:42.935Z,65.58
2022-07-29T08:15:09.984Z,66.49
2022-07-29T08:17:36.623Z,67.11
2022-07-29T08:20:03.983Z,68.61
2022-07-29T08:22:30.897Z,68.10
2022-07-29T08:24:57.410Z,67.81
2022-07-29T08:27:42.883Z,67.72
2022-07-29T08:30:11.429Z,69.29
2022-07-29T08:32:53.230Z,69.40
2022-07-29T08:35:21.695Z,69.81
2022-07-29T08:37:48.361Z,69.72
2022-07-29T08:40:15.357Z,68.79
2022-07-29T08:42:41.804Z,68.37
2022-07-29T08:45:09.015Z,67.04
2022-07-29T08:47:40.330Z,66.60
2022-07-29T08:50:08.498Z,66.44
2022-07-29T08:52:38.232Z,66.22
2022-07-29T08:55:07.407Z,65.85
2022-07-29T08:57:35.089Z,65.68
2022-07-29T09:00:11.383Z,64.85
2022-07-29T09:02:42.629Z,64.27
2022-07-29T09:05:09.515Z,64.82
2022-07-29T09:07:36.515Z,63.65
2022-07-29T09:10:05.636Z,64.58
2022-07-29T09:12:37.557Z,64.75
2022-07-29T09:15:04.579Z,64.20
2022-07-29T09:17:44.583Z,64.80
2022-07-29T09:20:20.609Z,64.73
2022-07-29T09:22:50.513Z,66.01
2022-07-29T09:25:34.506Z,65.54
2022-07-29T09:28:12.661Z,65.86
2022-07-29T09:30:53.480Z,65.10
2022-07-29T09:33:20.523Z,66.52
2022-07-29T09:35:56.397Z,66.07
2022-07-29T09:38:23.635Z,67.23
2022-07-29T09:41:05.453Z,66.95
2022-07-29T09:43:32.899Z,67.27
2022-07-29T09:46:12.583Z,67.21
2022-07-29T09:48:39.212Z,67.19
2022-07-29T09:51:06.816Z,66.99
2022-07-29T09:53:38.764Z,67.03
2022-07-29T09:56:06.027Z,67.45
2022-07-29T09:58:35.842Z,67.53
2022-07-29T10:01:02.648Z,67.45
2022-07-29T10:03:29.210Z,67.04
2022-07-29T10:06:14.467Z,67.46
2022-07-29T10:08:42.647Z,66.76
2022-07-29T10:11:12.134Z,66.16
2022-07-29T10:13:39.504Z,66.25
2022-07-29T10:16:07.234Z,66.41
2022-07-29T10:18:34.669Z,66.38
2022-07-29T10:21:02.087Z,66.41
2022-07-29T10:23:30.252Z,66.43
2022-07-29T10:26:13.964Z,65.15
2022-07-29T10:28:40.455Z,65.18
2022-07-29T10:31:14.660Z,64.67
2022-07-29T10:33:47.583Z,63.81
2022-07-29T10:36:35.532Z,63.08
2022-07-29T10:39:41.916Z,62.50
2022-07-29T10:42:20.350Z,60.88
2022-07-29T10:44:57.146Z,58.10
2022-07-29T10:47:28.197Z,58.05
2022-07-29T10:50:05.458Z,58.04
2022-07-29T10:52:50.169Z,57.95
2022-07-29T10:58:26.667Z,56.85
2022-07-29T11:00:55.135Z,54.49
2022-07-29T11:03:52.437Z,54.87
2022-07-29T11:06:26.364Z,52.97
2022-07-29T11:09:20.485Z,52.51
2022-07-29T11:12:02.076Z,52.51
2022-07-29T11:15:02.387Z,52.66
2022-07-29T11:17:37.634Z,51.87
2022-07-29T11:20:36.534Z,52.22
2022-07-29T11:23:34.050Z,54.46
2022-07-29T11:26:23.007Z,55.12
2022-07-29T11:29:18.997Z,54.65
2022-07-29T11:31:55.319Z,53.28
2022-07-29T11:34:28.006Z,52.53
2022-07-29T11:37:08.345Z,51.62
2022-07-29T11:39:37.734Z,53.01
2022-07-29T11:42:32.606Z,53.32
2022-07-29T11:45:06.639Z,52.79
2022-07-29T11:47:48.551Z,51.89
2022-07-29T11:50:28.939Z,52.00
2022-07-29T11:52:55.996Z,53.18
2022-07-29T11:55:25.176Z,52.37
2022-07-29T11:58:04.050Z,52.91
2022-07-29T12:00:36.635Z,52.99
2022-07-29T12:03:05.738Z,52.23
2022-07-29T12:05:36.455Z,52.43
2022-07-29T12:08:20.506Z,52.15
2022-07-29T12:10:49.358Z,51.98
2022-07-29T12:13:18.242Z,52.86
2022-07-29T12:15:59.707Z,52.37
2022-07-29T12:18:27.733Z,52.89
2022-07-29T12:21:04.908Z,53.00
2022-07-29T12:23:35.558Z,52.40
2022-07-29T12:26:07.423Z,52.74
2022-07-29T12:28:40.503Z,52.84
2022-07-29T12:31:15.084Z,51.88
2022-07-29T12:34:02.457Z,52.14
2022-07-29T12:36:28.988Z,52.05
2022-07-29T12:38:55.507Z,52.28
2022-07-29T12:41:22.787Z,52.12
2022-07-29T12:43:55.530Z,52.15
2022-07-29T12:46:22.333Z,51.67
2022-07-29T12:48:55.596Z,51.90
2022-07-29T12:51:34.946Z,51.61
2022-07-29T12:54:16.211Z,51.21
2022-07-29T12:56:45.650Z,50.75
2022-07-29T12:59:17.537Z,50.71
2022-07-29T13:01:44.867Z,50.83
2022-07-29T13:04:12.059Z,50.92
2022-07-29T13:06:39.241Z,50.90
2022-07-29T13:09:23.745Z,51.17
2022-07-29T13:11:54.275Z,52.05
2022-07-29T13:14:38.304Z,51.22
2022-07-29T13:17:04.962Z,51.68
2022-07-29T13:19:41.456Z,52.13
2022-07-29T13:22:12.529Z,51.48
2022-07-29T13:25:04.615Z,51.49
2022-07-29T13:27:34.017Z,50.63
2022-07-29T13:30:02.307Z,49.03
2022-07-29T13:32:30.875Z,50.18
2022-07-29T13:34:58.709Z,48.94
2022-07-29T13:37:26.803Z,49.09
2022-07-29T13:39:54.596Z,48.25
2022-07-29T13:42:21.720Z,46.98
2022-07-29T13:44:49.558Z,46.40
2022-07-29T13:47:17.178Z,47.12
2022-07-29T13:49:43.662Z,47.43
2022-07-29T13:52:10.109Z,47.11
2022-07-29T13:54:42.299Z,45.58
2022-07-29T13:57:09.623Z,45.18
2022-07-29T13:59:36.111Z,45.14
2022-07-29T14:02:03.184Z,43.47
2022-07-29T14:04:29.732Z,43.78
2022-07-29T14:06:56.269Z,44.59
2022-07-29T14:09:22.783Z,44.79
2022-07-29T14:11:51.111Z,45.29
2022-07-29T14:14:18.217Z,45.16
2022-07-29T14:16:47.761Z,44.75
2022-07-29T14:19:18.406Z,44.35
2022-07-29T14:21:45.680Z,45.05
2022-07-29T14:24:18.028Z,45.09
2022-07-29T14:26:48.516Z,45.77
2022-07-29T14:29:15.108Z,45.02
2022-07-29T14:31:41.630Z,44.44
2022-07-29T14:34:08.075Z,43.03
2022-07-29T14:36:34.536Z,43.01
2022-07-29T14:39:00.974Z,42.26
2022-07-29T14:41:29.447Z,42.05
2022-07-29T14:43:56.081Z,41.48
2022-07-29T14:46:22.945Z,41.66
2022-07-29T14:48:49.635Z,40.95
2022-07-29T14:51:16.133Z,41.55
2022-07-29T14:53:42.555Z,41.25
2022-07-29T14:56:34.314Z,41.12
2022-07-29T14:58:58.198Z,40.98
2022-07-29T15:01:25.650Z,40.95
2022-07-29T15:03:56.853Z,41.94
2022-07-29T15:06:26.702Z,41.60
2022-07-29T15:08:53.253Z,41.67
2022-07-29T15:11:19.796Z,41.67
2022-07-29T15:13:46.466Z,40.97
2022-07-29T15:16:12.982Z,40.57
2022-07-29T15:18:39.803Z,40.34
2022-07-29T15:21:07.885Z,40.94
2022-07-29T15:23:37.149Z,41.37
2022-07-29T15:26:04.626Z,40.94
2022-07-29T15:28:31.138Z,41.50
2022-07-29T15:30:57.569Z,42.06
2022-07-29T15:33:24.498Z,41.29
2022-07-29T15:35:50.932Z,41.94
2022-07-29T15:38:18.150Z,41.60
2022-07-29T15:40:45.342Z,41.59
2022-07-29T15:43:12.505Z,40.69
2022-07-29T15:46:03.656Z,41.46
2022-07-29T15:48:30.382Z,41.61
2022-07-29T15:50:56.907Z,41.21
2022-07-29T15:53:23.422Z,40.52
2022-07-29T15:55:50.065Z,40.97
2022-07-29T15:58:16.741Z,40.98
2022-07-29T16:00:43.247Z,40.38
2022-07-29T16:03:09.813Z,40.79
2022-07-29T16:05:36.390Z,41.28
2022-07-29T16:08:04.505Z,41.97
2022-07-29T16:10:30.988Z,41.77
2022-07-29T16:12:57.418Z,41.88
2022-07-29T16:15:24.209Z,41.89
2022-07-29T16:17:50.669Z,41.34
2022-07-29T16:20:17.633Z,41.57
2022-07-29T16:22:44.155Z,41.64
2022-07-29T16:25:10.628Z,41.78
2022-07-29T16:27:37.857Z,41.79
2022-07-29T16:30:06.287Z,43.36
2022-07-29T16:32:32.812Z,42.51
2022-07-29T16:35:01.984Z,42.87
2022-07-29T16:37:33.492Z,43.83
2022-07-29T16:40:00.025Z,44.27
2022-07-29T16:42:45.482Z,44.77
2022-07-29T16:45:13.516Z,45.17
2022-07-29T16:47:40.614Z,45.37
2022-07-29T16:50:07.798Z,45.79
2022-07-29T16:52:34.281Z,45.47
2022-07-29T16:55:00.775Z,45.71
2022-07-29T16:57:27.305Z,45.26
2022-07-29T16:59:53.844Z,45.11
2022-07-29T17:02:20.399Z,45.00
2022-07-29T17:04:47.000Z,44.26
2022-07-29T17:07:14.106Z,43.21
2022-07-29T17:09:40.660Z,43.50
2022-07-29T17:12:07.356Z,43.38
2022-07-29T17:14:33.895Z,43.76
2022-07-29T17:17:02.582Z,44.22
2022-07-29T17:19:31.959Z,43.21
2022-07-29T17:22:06.366Z,43.06
2022-07-29T17:24:36.042Z,43.62
2022-07-29T17:27:02.587Z,43.22
2022-07-29T17:29:29.015Z,43.79
2022-07-29T17:31:55.482Z,44.08
2022-07-29T17:34:21.932Z,44.13
2022-07-29T17:36:48.446Z,43.57
2022-07-29T17:39:15.019Z,43.28
2022-07-29T17:41:42.072Z,43.61
2022-07-29T17:44:09.389Z,43.56
2022-07-29T17:46:36.641Z,43.51
2022-07-29T17:49:04.446Z,43.75
2022-07-29T17:51:30.926Z,43.45
2022-07-29T17:53:58.631Z,43.16
2022-07-29T17:56:25.750Z,43.42
2022-07-29T17:58:52.985Z,43.30
2022-07-29T18:01:19.641Z,42.99
2022-07-29T18:03:46.921Z,42.98
2022-07-29T18:06:13.442Z,43.15
2022-07-29T18:08:40.615Z,42.96
2022-07-29T18:11:07.118Z,42.82
2022-07-29T18:13:33.643Z,43.26
2022-07-29T18:16:00.887Z,43.49
2022-07-29T18:18:28.074Z,43.50
2022-07-29T18:20:54.715Z,43.85
2022-07-29T18:23:21.255Z,43.81
2022-07-29T18:25:48.172Z,44.39
2022-07-29T18:28:15.013Z,44.39
2022-07-29T18:30:41.681Z,44.83
2022-07-29T18:33:22.887Z,44.21
2022-07-29T18:35:51.542Z,44.13
2022-07-29T18:38:18.689Z,43.94
2022-07-29T18:40:46.170Z,44.28
2022-07-29T18:43:13.705Z,45.01
2022-07-29T18:45:40.507Z,44.64
2022-07-29T18:48:12.709Z,44.52
2022-07-29T18:50:40.690Z,44.14
2022-07-29T18:53:07.250Z,44.24
2022-07-29T18:55:34.166Z,44.32
2022-07-29T18:58:00.573Z,44.52
2022-07-29T19:00:27.636Z,44.61
2022-07-29T19:02:54.305Z,45.20
2022-07-29T19:05:21.218Z,45.33
2022-07-29T19:07:47.668Z,44.96
2022-07-29T19:10:14.365Z,45.19
2022-07-29T19:12:41.206Z,45.03
2022-07-29T19:15:08.440Z,45.51
2022-07-29T19:17:34.911Z,45.75
2022-07-29T19:20:01.867Z,45.73
2022-07-29T19:22:28.603Z,45.76
2022-07-29T19:24:55.086Z,46.25
2022-07-29T19:27:21.655Z,46.27
2022-07-29T19:29:48.184Z,46.59
2022-07-29T19:32:24.810Z,46.69
2022-07-29T19:35:11.328Z,47.15
2022-07-29T19:37:37.770Z,47.42
2022-07-29T19:40:05.938Z,47.83
2022-07-29T19:42:32.430Z,47.99
2022-07-29T19:44:58.932Z,48.33
2022-07-29T19:47:25.630Z,48.50
2022-07-29T19:49:52.142Z,48.94
2022-07-29T19:52:18.589Z,49.43
2022-07-29T19:54:45.161Z,49.83
2022-07-29T19:57:11.593Z,50.44
2022-07-29T19:59:38.633Z,50.87
2022-07-29T20:02:05.452Z,51.21
2022-07-29T20:04:32.348Z,51.38
2022-07-29T20:07:01.701Z,51.62
2022-07-29T20:09:28.971Z,51.79
2022-07-29T20:11:55.534Z,51.88
2022-07-29T20:14:22.812Z,52.21
2022-07-29T20:16:50.593Z,52.08
2022-07-29T20:19:17.423Z,52.53
2022-07-29T20:21:43.965Z,52.64
2022-07-29T20:24:10.639Z,52.89
2022-07-29T20:26:37.639Z,53.17
2022-07-29T20:29:05.262Z,53.46
2022-07-29T20:31:32.410Z,53.35
2022-07-29T20:33:59.228Z,53.79
2022-07-29T20:36:25.869Z,54.06
2022-07-29T20:38:52.348Z,53.93
2022-07-29T20:41:18.825Z,54.26
2022-07-29T20:43:45.536Z,54.21
2022-07-29T20:46:12.456Z,54.48
2022-07-29T20:48:40.410Z,54.89
2022-07-29T20:51:07.360Z,55.17
2022-07-29T20:53:34.040Z,55.48
2022-07-29T20:56:00.532Z,55.52
2022-07-29T20:58:26.972Z,55.87
2022-07-29T21:00:53.532Z,56.09
2022-07-29T21:03:20.224Z,56.32
2022-07-29T21:05:46.710Z,56.35
2022-07-29T21:08:13.524Z,56.13
2022-07-29T21:10:40.010Z,56.58
2022-07-29T21:13:06.473Z,56.78
2022-07-29T21:15:33.280Z,57.06
2022-07-29T21:18:02.250Z,57.09
2022-07-29T21:20:29.753Z,57.19
2022-07-29T21:22:56.360Z,57.53
2022-07-29T21:25:23.539Z,57.88
2022-07-29T21:28:09.396Z,57.75
2022-07-29T21:30:36.600Z,58.10
2022-07-29T21:33:03.834Z,58.22
2022-07-29T21:36:01.541Z,58.38
2022-07-29T21:38:18.381Z,58.61
2022-07-29T21:40:50.114Z,58.46
2022-07-29T21:43:17.827Z,58.49
2022-07-29T21:45:47.645Z,58.37
2022-07-29T21:48:14.229Z,58.62
2022-07-29T21:50:41.046Z,58.66
2022-07-29T21:53:07.802Z,58.73
2022-07-29T21:55:37.912Z,57.77
2022-07-29T21:58:04.447Z,57.73
2022-07-29T22:00:33.762Z,57.32
2022-07-29T22:03:04.641Z,56.47
2022-07-29T22:05:31.985Z,57.00
2022-07-29T22:07:58.813Z,57.05
2022-07-29T22:10:26.761Z,56.40
2022-07-29T22:12:54.798Z,55.98
2022-07-29T22:15:21.837Z,55.75
2022-07-29T22:17:48.449Z,55.92
2022-07-29T22:20:14.916Z,55.79
2022-07-29T22:22:42.207Z,55.66
2022-07-29T22:25:10.575Z,55.70
2022-07-29T22:27:37.299Z,55.76
2022-07-29T22:30:07.185Z,55.90
2022-07-29T22:32:34.268Z,55.93
2022-07-29T22:35:00.953Z,56.19
2022-07-29T22:37:27.434Z,56.34
2022-07-29T22:39:54.003Z,56.56
2022-07-29T22:42:21.018Z,56.73
2022-07-29T22:44:47.480Z,56.84
2022-07-29T22:47:14.167Z,56.86
2022-07-29T22:49:40.659Z,56.87
2022-07-29T22:52:09.060Z,57.04
2022-07-29T22:54:35.525Z,57.17
2022-07-29T22:57:02.973Z,57.33
2022-07-29T22:59:29.560Z,57.83
2022-07-29T23:01:56.167Z,57.96
2022-07-29T23:04:23.707Z,57.85
2022-07-29T23:06:51.214Z,57.80
2022-07-29T23:09:17.873Z,58.33
2022-07-29T23:11:44.519Z,58.68
2022-07-29T23:14:10.967Z,59.03
2022-07-29T23:16:37.504Z,58.68
2022-07-29T23:19:04.022Z,59.03
2022-07-29T23:21:30.539Z,59.21
2022-07-29T23:23:57.016Z,59.50
2022-07-29T23:26:23.493Z,59.82
2022-07-29T23:28:50.125Z,60.06
2022-07-29T23:31:17.342Z,59.99
2022-07-29T23:33:43.832Z,60.20
2022-07-29T23:36:10.510Z,60.27
2022-07-29T23:38:44.335Z,60.50
2022-07-29T23:41:10.777Z,60.77
2022-07-29T23:43:37.891Z,61.11
2022-07-29T23:46:04.705Z,61.25
2022-07-29T23:48:32.967Z,61.53
2022-07-29T23:51:01.003Z,61.84
2022-07-29T23:53:28.646Z,62.00
2022-07-29T23:55:56.085Z,62.01
2022-07-29T23:58:23.173Z,62.18
